Time;durP1;ratioP1;P1;durP2;ratioP2;P2;SDS_P1;SDS_P2;PMS_P1;PMS_P2;Temp;Humidity;BMP_temperature;BMP_pressure;BME280_temperature;BME280_humidity;BME280_pressure;Samples;Min_cycle;Max_cycle;Signal;HPM_P1;HPM_P2
2023/05/01 00:00:32;;;;;;;1.27;1.00;;;16.20;67.10;;;;;;10363140;28;20045;-56
2023/05/01 00:05:32;;;;;;;1.73;1.10;;;16.20;67.10;;;;;;10363226;28;20125;-55
2023/05/01 00:10:35;;;;;;;1.42;0.88;;;16.20;67.10;;;;;;10362737;28;20117;-55
2023/05/01 00:15:36;;;;;;;1.85;1.00;;;16.20;67.00;;;;;;10363989;28;20022;-56
2023/05/01 00:20:36;;;;;;;2.67;1.23;;;16.20;66.90;;;;;;10364051;28;20093;-55
2023/05/01 00:25:38;;;;;;;1.30;0.90;;;16.20;66.90;;;;;;10349756;28;20117;-55
2023/05/01 00:30:39;;;;;;;1.10;0.90;;;16.10;66.80;;;;;;10365203;28;20034;-55
2023/05/01 00:35:43;;;;;;;1.27;1.00;;;16.10;66.80;;;;;;10370640;28;20032;-57
2023/05/01 00:40:45;;;;;;;1.15;0.90;;;16.10;66.70;;;;;;10371232;28;20030;-56
2023/05/01 00:45:46;;;;;;;1.30;0.93;;;16.10;66.70;;;;;;10369969;28;20481;-56
2023/05/01 00:50:48;;;;;;;1.88;0.80;;;16.10;66.60;;;;;;10371774;28;20034;-56
2023/05/01 00:55:50;;;;;;;1.20;0.90;;;16.10;66.60;;;;;;10369971;28;20457;-56
2023/05/01 01:00:51;;;;;;;1.75;0.90;;;16.10;66.50;;;;;;10371150;28;20469;-55
2023/05/01 01:06:18;;;;;;;1.70;1.20;;;16.10;66.50;;;;;;10370799;28;20076;-55
2023/05/01 01:11:35;;;;;;;1.27;0.77;;;16.10;66.50;;;;;;10370707;28;20045;-57
2023/05/01 01:17:03;;;;;;;1.55;1.00;;;16.00;66.30;;;;;;10368896;28;20026;-56
2023/05/01 01:22:14;;;;;;;1.48;0.90;;;16.10;66.40;;;;;;10354437;28;20164;-56
2023/05/01 01:27:41;;;;;;;1.23;0.90;;;16.10;66.40;;;;;;10357116;28;20018;-55
2023/05/01 01:33:22;;;;;;;2.17;1.00;;;16.00;66.40;;;;;;10370361;28;20038;-57
2023/05/01 01:38:41;;;;;;;0.93;0.80;;;16.00;66.30;;;;;;10370087;28;20581;-57
2023/05/01 01:43:48;;;;;;;1.38;1.10;;;16.00;66.30;;;;;;10359107;28;20018;-56
2023/05/01 01:48:51;;;;;;;1.70;1.05;;;16.00;66.20;;;;;;10378639;28;20022;-56
2023/05/01 01:53:55;;;;;;;1.17;0.80;;;16.00;66.20;;;;;;10351849;28;20508;-55
2023/05/01 01:58:59;;;;;;;1.10;0.65;;;16.00;66.20;;;;;;10367103;28;20101;-56
2023/05/01 02:04:02;;;;;;;1.80;0.98;;;16.00;66.20;;;;;;10367534;28;20049;-57
2023/05/01 02:09:05;;;;;;;1.42;0.90;;;16.00;66.10;;;;;;10367647;28;20513;-55
2023/05/01 02:14:07;;;;;;;2.05;0.85;;;16.00;66.10;;;;;;10367928;28;20158;-56
2023/05/01 02:19:09;;;;;;;1.30;0.80;;;16.00;66.10;;;;;;10367010;28;20044;-56
2023/05/01 02:24:11;;;;;;;1.73;0.93;;;16.00;66.10;;;;;;10366841;28;20023;-56
2023/05/01 02:29:11;;;;;;;1.48;0.98;;;16.00;66.70;;;;;;10366145;28;20068;-56
2023/05/01 02:34:12;;;;;;;1.42;1.30;;;16.00;66.00;;;;;;10368422;28;20064;-55
2023/05/01 02:39:13;;;;;;;2.03;1.00;;;15.90;66.00;;;;;;10367159;28;20113;-57
2023/05/01 02:44:14;;;;;;;2.03;1.35;;;16.00;66.00;;;;;;10367051;28;20092;-56
2023/05/01 02:49:17;;;;;;;1.23;0.88;;;15.90;66.00;;;;;;10366116;28;20121;-56
2023/05/01 02:54:19;;;;;;;2.22;1.08;;;15.90;65.90;;;;;;10365276;28;20130;-56
2023/05/01 02:59:20;;;;;;;1.55;1.10;;;15.90;65.90;;;;;;10365898;28;20029;-56
2023/05/01 03:04:21;;;;;;;1.58;0.90;;;15.90;65.90;;;;;;10365956;28;20069;-57
2023/05/01 03:09:22;;;;;;;1.92;1.00;;;15.90;65.90;;;;;;10366663;28;20358;-55
2023/05/01 03:14:22;;;;;;;2.05;1.17;;;15.90;65.90;;;;;;10366028;28;20038;-55
2023/05/01 03:19:23;;;;;;;1.77;1.10;;;15.90;66.00;;;;;;10365936;28;20018;-55
2023/05/01 03:24:23;;;;;;;1.35;0.88;;;15.90;65.90;;;;;;10357531;28;20384;-54
2023/05/01 03:29:24;;;;;;;1.52;0.95;;;15.90;66.00;;;;;;10359184;28;20054;-56
2023/05/01 03:34:26;;;;;;;2.15;1.00;;;15.90;66.00;;;;;;10349495;28;20505;-55
2023/05/01 03:39:27;;;;;;;1.55;1.00;;;15.80;65.90;;;;;;10365500;28;20731;-56
2023/05/01 03:44:27;;;;;;;1.15;0.85;;;15.90;66.00;;;;;;10363705;28;20129;-55
2023/05/01 03:49:28;;;;;;;1.15;0.80;;;15.90;65.90;;;;;;10364757;28;20482;-57
2023/05/01 03:54:29;;;;;;;1.90;1.00;;;15.90;66.00;;;;;;10364989;28;20435;-56
2023/05/01 03:59:30;;;;;;;1.67;1.15;;;15.90;66.00;;;;;;10364256;28;20014;-57
2023/05/01 04:04:31;;;;;;;1.00;0.75;;;15.80;65.90;;;;;;10363539;28;20100;-57
2023/05/01 04:09:31;;;;;;;1.83;1.02;;;15.80;65.90;;;;;;10362349;28;20026;-56
2023/05/01 04:14:32;;;;;;;1.88;0.90;;;15.80;66.00;;;;;;10374991;28;20041;-55
2023/05/01 04:19:33;;;;;;;2.60;1.25;;;15.80;65.90;;;;;;10379244;28;20473;-56
2023/05/01 04:24:35;;;;;;;1.42;1.00;;;15.80;66.00;;;;;;10363965;28;20025;-56
2023/05/01 04:29:35;;;;;;;1.55;0.93;;;15.80;66.00;;;;;;10364072;28;20033;-56
2023/05/01 04:34:36;;;;;;;2.38;1.00;;;15.80;66.00;;;;;;10365482;28;20069;-57
2023/05/01 04:39:37;;;;;;;1.60;0.93;;;15.80;66.00;;;;;;10363373;28;20097;-56
2023/05/01 04:44:38;;;;;;;1.90;1.27;;;15.80;66.00;;;;;;10363895;28;20729;-55
2023/05/01 04:49:38;;;;;;;1.50;0.95;;;15.80;66.00;;;;;;10363387;28;20730;-54
2023/05/01 04:54:39;;;;;;;1.67;1.02;;;15.80;66.00;;;;;;10363746;28;20050;-55
2023/05/01 04:59:40;;;;;;;2.80;0.77;;;15.80;66.00;;;;;;10363545;28;20101;-55
2023/05/01 05:04:41;;;;;;;1.63;1.10;;;15.80;66.00;;;;;;10363160;28;20117;-57
2023/05/01 05:09:41;;;;;;;2.33;0.90;;;15.80;66.10;;;;;;10361698;28;20076;-56
2023/05/01 05:14:42;;;;;;;2.83;1.27;;;15.80;66.10;;;;;;10361698;28;20038;-56
2023/05/01 05:19:43;;;;;;;2.08;1.25;;;15.80;66.10;;;;;;10364886;28;20054;-55
2023/05/01 05:24:44;;;;;;;2.45;1.25;;;15.80;66.10;;;;;;10369880;28;20018;-56
2023/05/01 05:29:44;;;;;;;1.13;0.80;;;15.80;66.10;;;;;;10369673;28;20113;-54
2023/05/01 05:34:46;;;;;;;1.70;0.90;;;15.70;66.10;;;;;;10373565;28;20084;-56
2023/05/01 05:39:46;;;;;;;2.10;1.15;;;15.70;66.10;;;;;;10350466;28;20053;-56
2023/05/01 05:44:47;;;;;;;1.65;1.05;;;15.80;66.20;;;;;;10368695;28;20105;-57
2023/05/01 05:49:48;;;;;;;1.98;1.20;;;15.80;66.20;;;;;;10368891;28;20057;-55
2023/05/01 05:54:48;;;;;;;2.75;1.45;;;15.80;66.20;;;;;;10369293;28;20569;-55
2023/05/01 05:59:49;;;;;;;1.60;0.82;;;15.70;66.20;;;;;;10368689;28;20513;-56
2023/05/01 06:04:50;;;;;;;1.33;0.90;;;15.80;66.20;;;;;;10367229;28;20144;-56
2023/05/01 06:09:50;;;;;;;1.95;1.20;;;15.70;66.20;;;;;;10368412;28;20133;-57
2023/05/01 06:14:51;;;;;;;1.88;1.10;;;15.80;66.30;;;;;;10368144;28;20033;-55
2023/05/01 06:19:52;;;;;;;2.13;1.30;;;15.70;66.20;;;;;;10367875;28;20049;-57
2023/05/01 06:24:52;;;;;;;1.85;1.00;;;15.70;66.20;;;;;;10366855;28;20109;-57
2023/05/01 06:29:53;;;;;;;1.83;1.15;;;15.80;66.30;;;;;;10367423;28;20533;-55
2023/05/01 06:34:54;;;;;;;1.52;0.88;;;15.80;66.40;;;;;;10364257;28;20101;-57
2023/05/01 06:39:55;;;;;;;3.65;1.50;;;15.70;66.30;;;;;;10366095;28;20131;-56
2023/05/01 06:44:56;;;;;;;2.30;0.80;;;15.70;66.40;;;;;;10364846;28;20180;-56
2023/05/01 06:49:56;;;;;;;1.30;0.70;;;15.70;66.40;;;;;;10366081;28;20017;-56
2023/05/01 06:54:57;;;;;;;1.20;1.00;;;15.80;66.50;;;;;;10366720;28;20116;-56
2023/05/01 06:59:58;;;;;;;1.77;0.80;;;15.80;66.50;;;;;;10366475;28;20018;-57
2023/05/01 07:04:58;;;;;;;1.83;1.02;;;15.80;66.40;;;;;;10366045;28;20042;-56
2023/05/01 07:09:59;;;;;;;2.03;1.20;;;15.80;66.50;;;;;;10365346;28;20069;-57
2023/05/01 07:15:00;;;;;;;1.88;1.00;;;15.80;66.50;;;;;;10365232;28;20673;-57
2023/05/01 07:20:01;;;;;;;2.47;1.02;;;15.80;66.60;;;;;;10365045;28;20069;-56
2023/05/01 07:25:02;;;;;;;1.10;0.70;;;15.80;66.50;;;;;;10371453;28;20030;-56
2023/05/01 07:30:04;;;;;;;1.55;0.95;;;15.80;66.40;;;;;;10366075;28;20057;-56
2023/05/01 07:35:05;;;;;;;1.13;0.68;;;15.80;66.40;;;;;;10364908;28;20484;-56
2023/05/01 07:40:06;;;;;;;1.73;1.00;;;15.80;66.40;;;;;;10365426;28;20028;-54
2023/05/01 07:45:08;;;;;;;2.92;1.10;;;15.80;66.30;;;;;;10363932;28;20026;-56
2023/05/01 07:50:12;;;;;;;1.98;1.17;;;15.90;66.60;;;;;;10364524;28;20030;-57
2023/05/01 07:55:13;;;;;;;1.73;1.20;;;15.90;66.60;;;;;;10363817;28;20036;-57
2023/05/01 08:00:14;;;;;;;2.10;1.10;;;15.90;66.60;;;;;;10364197;28;20025;-57
2023/05/01 08:05:15;;;;;;;2.28;1.10;;;15.90;66.60;;;;;;10362973;28;20715;-56
2023/05/01 08:10:16;;;;;;;2.42;1.30;;;15.90;66.60;;;;;;10364404;28;21981;-56
2023/05/01 08:15:16;;;;;;;2.78;1.23;;;15.90;66.60;;;;;;10364173;28;20012;-55
2023/05/01 08:20:17;;;;;;;3.05;1.17;;;15.90;66.60;;;;;;10364123;28;20101;-56
2023/05/01 08:25:18;;;;;;;3.05;1.25;;;16.00;66.60;;;;;;10350655;28;20040;-56
2023/05/01 08:30:19;;;;;;;2.53;1.40;;;16.00;66.60;;;;;;10363660;28;20117;-57
2023/05/01 08:35:19;;;;;;;2.28;1.40;;;16.00;66.60;;;;;;10363897;28;20014;-57
2023/05/01 08:40:22;;;;;;;1.90;1.00;;;16.00;66.60;;;;;;10363129;28;20028;-55
2023/05/01 08:45:24;;;;;;;1.70;1.13;;;16.00;66.70;;;;;;10362445;28;20030;-55
2023/05/01 08:50:26;;;;;;;2.97;1.27;;;16.10;66.80;;;;;;10362212;28;20033;-55
2023/05/01 08:55:28;;;;;;;2.08;1.20;;;16.10;66.80;;;;;;10366197;28;20030;-57
2023/05/01 09:00:33;;;;;;;2.00;1.27;;;16.10;66.70;;;;;;10370572;28;20056;-55
2023/05/01 09:05:33;;;;;;;1.98;1.27;;;16.10;66.90;;;;;;10372343;28;20064;-54
2023/05/01 09:10:43;;;;;;;1.55;1.25;;;16.20;66.80;;;;;;10370482;28;20221;-56
2023/05/01 09:15:43;;;;;;;3.30;1.45;;;16.20;66.80;;;;;;10370635;28;20156;-56
2023/05/01 09:20:44;;;;;;;1.77;1.10;;;16.20;66.80;;;;;;10369411;28;20076;-54
2023/05/01 09:25:45;;;;;;;4.00;1.60;;;16.20;66.70;;;;;;10369820;28;20022;-56
2023/05/01 09:30:46;;;;;;;1.92;1.10;;;16.20;66.80;;;;;;10371786;28;20038;-56
2023/05/01 09:35:48;;;;;;;2.45;1.33;;;16.30;66.80;;;;;;10369895;28;20381;-56
2023/05/01 09:40:49;;;;;;;2.00;1.10;;;16.30;66.90;;;;;;10369392;28;20057;-55
2023/05/01 09:46:08;;;;;;;2.30;1.77;;;16.30;66.90;;;;;;10369567;28;20058;-55
2023/05/01 09:51:31;;;;;;;1.73;1.05;;;16.30;66.90;;;;;;10369110;28;20643;-56
2023/05/01 09:56:33;;;;;;;2.88;1.30;;;16.30;67.00;;;;;;10368988;28;20026;-55
2023/05/01 10:01:43;;;;;;;2.00;0.90;;;16.30;67.40;;;;;;10368454;28;20096;-56
2023/05/01 10:06:43;;;;;;;1.48;1.17;;;16.40;66.90;;;;;;10367610;28;20060;-56
2023/05/01 10:11:53;;;;;;;2.13;1.25;;;16.40;66.90;;;;;;10366932;28;20038;-57
2023/05/01 10:16:55;;;;;;;;;;;16.40;67.00;;;;;;10368404;28;20049;-56
2023/05/01 10:21:57;;;;;;;1.45;0.80;;;16.40;67.00;;;;;;10368241;28;19901;-57
2023/05/01 10:26:59;;;;;;;1.73;1.05;;;16.40;67.10;;;;;;10358191;28;20518;-57
2023/05/01 10:32:01;;;;;;;2.10;1.42;;;16.40;67.10;;;;;;10367677;28;20500;-56
2023/05/01 10:37:20;;;;;;;1.77;1.25;;;16.40;67.20;;;;;;10366166;28;20080;-56
2023/05/01 10:42:21;;;;;;;3.15;1.10;;;16.40;67.10;;;;;;10367386;28;20022;-56
2023/05/01 10:47:26;;;;;;;1.73;1.27;;;16.50;67.10;;;;;;10368306;28;20097;-56
2023/05/01 10:52:27;;;;;;;1.90;1.25;;;16.50;67.20;;;;;;10367493;28;20038;-56
2023/05/01 10:57:43;;;;;;;1.58;0.90;;;16.50;67.10;;;;;;10367241;28;20032;-56
2023/05/01 11:02:44;;;;;;;1.58;0.90;;;16.60;67.00;;;;;;10365967;28;20153;-56
2023/05/01 11:07:45;;;;;;;1.15;0.70;;;16.60;67.10;;;;;;10366334;28;20499;-55
2023/05/01 11:12:45;;;;;;;1.27;0.93;;;16.60;67.10;;;;;;10366099;28;20105;-57
2023/05/01 11:17:48;;;;;;;1.33;0.95;;;16.60;67.10;;;;;;10364545;28;20366;-55
2023/05/01 11:22:55;;;;;;;1.65;0.85;;;16.70;67.10;;;;;;10364783;28;20065;-56
2023/05/01 11:27:59;;;;;;;1.50;1.08;;;16.70;67.10;;;;;;10351962;28;20531;-56
2023/05/01 11:32:59;;;;;;;1.23;0.75;;;16.70;67.10;;;;;;10364499;28;20069;-55
2023/05/01 11:38:00;;;;;;;1.90;1.10;;;16.70;67.10;;;;;;10355295;28;20022;-55
2023/05/01 11:43:06;;;;;;;2.05;1.30;;;16.70;67.20;;;;;;10364826;28;20091;-53
2023/05/01 11:48:17;;;;;;;1.55;0.80;;;16.70;67.10;;;;;;10365194;28;20466;-57
2023/05/01 11:53:17;;;;;;;1.48;0.80;;;16.70;67.10;;;;;;10363319;28;20541;-56
2023/05/01 11:58:31;;;;;;;1.30;1.00;;;16.70;67.20;;;;;;10363197;28;20028;-57
2023/05/01 12:03:41;;;;;;;1.67;1.27;;;16.70;67.10;;;;;;10362257;28;20125;-56
2023/05/01 12:08:46;;;;;;;2.05;1.10;;;16.70;67.10;;;;;;10364383;28;20037;-56
2023/05/01 12:13:49;;;;;;;1.38;0.95;;;16.80;67.10;;;;;;10363482;28;20038;-56
2023/05/01 12:18:49;;;;;;;1.85;1.10;;;16.80;67.10;;;;;;10364163;28;20022;-55
2023/05/01 12:23:50;;;;;;;1.50;0.98;;;16.80;67.10;;;;;;10362191;28;20030;-55
2023/05/01 12:28:59;;;;;;;1.30;0.70;;;16.80;67.10;;;;;;10355589;28;20111;-54
2023/05/01 12:34:02;;;;;;;1.83;1.02;;;16.80;67.10;;;;;;10373614;28;20273;-56
2023/05/01 12:39:05;;;;;;;2.20;1.30;;;16.80;67.10;;;;;;10372323;28;20018;-56
2023/05/01 12:44:22;;;;;;;2.10;1.30;;;16.90;67.00;;;;;;10371861;28;20026;-57
2023/05/01 12:49:23;;;;;;;3.13;1.00;;;17.00;67.00;;;;;;10371808;28;20113;-55
2023/05/01 12:54:33;;;;;;;1.42;1.13;;;17.00;66.90;;;;;;10371836;28;20022;-56
2023/05/01 12:59:36;;;;;;;1.88;1.10;;;17.10;66.70;;;;;;10371148;28;20084;-56
2023/05/01 13:04:38;;;;;;;1.40;0.85;;;17.10;66.60;;;;;;10371249;28;20501;-56
2023/05/01 13:09:39;;;;;;;3.25;0.95;;;17.10;66.60;;;;;;10370821;28;20473;-57
2023/05/01 13:14:41;;;;;;;1.65;1.08;;;17.10;66.40;;;;;;10362208;28;20069;-53
2023/05/01 13:19:42;;;;;;;2.28;1.13;;;17.20;66.50;;;;;;10370581;28;20058;-55
2023/05/01 13:24:43;;;;;;;1.92;1.13;;;17.10;66.50;;;;;;10370310;28;20105;-56
2023/05/01 13:29:56;;;;;;;1.63;1.13;;;17.10;66.60;;;;;;10369225;28;20026;-56
2023/05/01 13:35:00;;;;;;;1.63;1.23;;;17.20;66.50;;;;;;10367042;28;20049;-57
2023/05/01 13:40:02;;;;;;;1.33;1.08;;;17.20;66.60;;;;;;10367585;28;20557;-56
2023/05/01 13:45:05;;;;;;;1.27;1.17;;;17.10;66.60;;;;;;10367963;28;20038;-56
2023/05/01 13:50:11;;;;;;;1.55;1.10;;;17.10;66.80;;;;;;10369754;28;20068;-56
2023/05/01 13:55:16;;;;;;;2.88;1.48;;;17.00;66.80;;;;;;10367716;28;20136;-56
2023/05/01 14:00:17;;;;;;;1.50;0.90;;;17.00;66.90;;;;;;10369375;28;20492;-57
2023/05/01 14:05:27;;;;;;;1.95;1.20;;;17.00;66.90;;;;;;10366728;28;20038;-55
2023/05/01 14:10:28;;;;;;;1.83;1.00;;;16.90;67.10;;;;;;10355611;28;20081;-56
2023/05/01 14:15:30;;;;;;;1.77;1.35;;;16.90;67.10;;;;;;10368788;28;20064;-56
2023/05/01 14:20:30;;;;;;;1.88;1.23;;;16.90;67.70;;;;;;10368013;28;20673;-56
2023/05/01 14:25:33;;;;;;;2.35;1.33;;;16.80;67.20;;;;;;10352412;28;20022;-57
2023/05/01 14:30:37;;;;;;;2.35;1.02;;;16.80;67.20;;;;;;10368902;28;20069;-56
2023/05/01 14:35:49;;;;;;;1.77;1.23;;;16.80;67.30;;;;;;10367000;28;20563;-56
2023/05/01 14:40:50;;;;;;;1.73;1.17;;;16.80;67.30;;;;;;10367632;28;20052;-57
2023/05/01 14:45:51;;;;;;;2.72;1.23;;;16.80;67.40;;;;;;10367606;28;20026;-56
2023/05/01 14:50:53;;;;;;;2.60;1.67;;;16.80;67.40;;;;;;10365646;28;20552;-56
2023/05/01 14:55:54;;;;;;;2.25;0.93;;;16.70;67.30;;;;;;10367052;28;20018;-55
2023/05/01 15:00:54;;;;;;;2.28;1.30;;;16.80;67.40;;;;;;10366615;28;20503;-57
2023/05/01 15:05:56;;;;;;;1.45;1.08;;;16.80;67.30;;;;;;10366561;28;20521;-56
2023/05/01 15:10:56;;;;;;;2.65;1.40;;;16.80;67.20;;;;;;10366204;28;20085;-57
2023/05/01 15:15:57;;;;;;;2.45;1.85;;;16.80;67.30;;;;;;10365643;28;20057;-57
2023/05/01 15:20:58;;;;;;;2.38;1.33;;;16.80;67.30;;;;;;10364154;28;20640;-56
2023/05/01 15:26:00;;;;;;;2.63;1.33;;;16.80;67.10;;;;;;10352935;28;20406;-56
2023/05/01 15:31:01;;;;;;;2.03;1.38;;;16.80;67.20;;;;;;10366746;28;20492;-54
2023/05/01 15:36:01;;;;;;;1.88;1.10;;;16.90;67.10;;;;;;10365237;28;20024;-57
2023/05/01 15:41:02;;;;;;;1.77;1.27;;;16.90;67.00;;;;;;10364915;28;20529;-56
2023/05/01 15:46:04;;;;;;;2.10;1.40;;;17.00;66.90;;;;;;10365570;28;20024;-57
2023/05/01 15:51:05;;;;;;;2.25;1.35;;;17.00;66.80;;;;;;10365101;28;20073;-57
2023/05/01 15:56:08;;;;;;;2.50;1.00;;;17.10;66.80;;;;;;10364648;28;20076;-57
2023/05/01 16:01:11;;;;;;;1.75;1.25;;;17.10;66.70;;;;;;10350175;28;20450;-56
2023/05/01 16:06:15;;;;;;;1.75;1.35;;;17.10;66.70;;;;;;10363418;28;20605;-55
2023/05/01 16:11:15;;;;;;;3.70;1.20;;;17.10;66.70;;;;;;10364354;28;20042;-56
2023/05/01 16:16:24;;;;;;;2.42;1.75;;;17.10;66.60;;;;;;10364302;28;20362;-57
2023/05/01 16:21:26;;;;;;;2.00;1.15;;;17.10;66.70;;;;;;10363284;28;20163;-55
2023/05/01 16:26:28;;;;;;;2.55;1.13;;;17.10;66.70;;;;;;10364303;28;20481;-57
2023/05/01 16:31:39;;;;;;;2.15;1.50;;;17.10;66.80;;;;;;10364056;28;20099;-55
2023/05/01 16:36:41;;;;;;;2.38;1.50;;;17.00;66.80;;;;;;10362368;28;20504;-57
2023/05/01 16:41:49;;;;;;;2.63;1.77;;;17.10;66.80;;;;;;10351261;28;20111;-55
2023/05/01 16:46:57;;;;;;;2.08;1.30;;;17.00;66.80;;;;;;10363614;28;20022;-56
2023/05/01 16:51:58;;;;;;;2.47;1.50;;;17.00;66.70;;;;;;10364024;28;20699;-56
2023/05/01 16:56:59;;;;;;;2.65;1.33;;;17.10;66.80;;;;;;10363484;28;20089;-55
2023/05/01 17:01:59;;;;;;;2.45;1.17;;;17.10;66.80;;;;;;10363512;28;20061;-55
2023/05/01 17:07:00;;;;;;;2.58;1.52;;;17.00;66.80;;;;;;10378506;28;20077;-57
2023/05/01 17:12:02;;;;;;;2.80;1.55;;;17.00;66.90;;;;;;10362787;28;20089;-57
2023/05/01 17:17:03;;;;;;;2.15;1.40;;;17.00;67.00;;;;;;10367237;28;20057;-57
2023/05/01 17:22:05;;;;;;;2.53;1.20;;;16.90;67.00;;;;;;10370787;28;20140;-56
2023/05/01 17:27:06;;;;;;;2.90;1.55;;;16.90;67.00;;;;;;10358386;28;20076;-54
2023/05/01 17:32:07;;;;;;;2.10;1.20;;;16.90;67.00;;;;;;10369688;28;20501;-56
2023/05/01 17:37:08;;;;;;;1.88;1.20;;;16.90;66.90;;;;;;10369927;28;20015;-57
2023/05/01 17:42:09;;;;;;;2.47;1.38;;;16.90;67.00;;;;;;10369793;28;20058;-55
2023/05/01 17:47:09;;;;;;;2.38;1.27;;;16.90;67.10;;;;;;10370114;28;20103;-57
2023/05/01 17:52:11;;;;;;;4.05;1.42;;;16.90;67.10;;;;;;10368948;28;20042;-56
2023/05/01 17:57:11;;;;;;;2.58;1.38;;;16.90;67.20;;;;;;10369231;28;20017;-56
2023/05/01 18:02:12;;;;;;;2.85;1.45;;;16.90;67.20;;;;;;10380505;28;20172;-56
2023/05/01 18:07:13;;;;;;;1.85;1.05;;;16.90;67.20;;;;;;10367957;28;20104;-57
2023/05/01 18:12:13;;;;;;;2.28;1.58;;;16.80;67.20;;;;;;10368183;28;20155;-54
2023/05/01 18:17:14;;;;;;;1.77;1.35;;;16.80;67.20;;;;;;10367969;28;20096;-57
2023/05/01 18:22:16;;;;;;;1.85;1.27;;;16.80;67.10;;;;;;10367692;28;20479;-56
2023/05/01 18:27:17;;;;;;;2.00;1.35;;;16.80;67.20;;;;;;10366936;28;20026;-56
2023/05/01 18:32:18;;;;;;;2.38;1.55;;;16.80;67.20;;;;;;10368775;28;20092;-56
2023/05/01 18:37:19;;;;;;;2.60;1.80;;;16.80;67.20;;;;;;10366166;28;20021;-55
2023/05/01 18:42:19;;;;;;;2.22;1.60;;;16.80;67.20;;;;;;10367410;28;20057;-57
2023/05/01 18:47:20;;;;;;;2.28;1.70;;;16.70;67.10;;;;;;10366928;28;20061;-56
2023/05/01 18:52:21;;;;;;;1.88;1.42;;;16.80;67.20;;;;;;10367267;28;20046;-57
2023/05/01 18:57:22;;;;;;;1.75;1.45;;;16.70;67.20;;;;;;10366871;28;20025;-56
2023/05/01 19:02:22;;;;;;;2.25;1.58;;;16.70;67.20;;;;;;10366256;28;20092;-56
2023/05/01 19:07:24;;;;;;;3.60;1.90;;;16.70;67.20;;;;;;10366076;28;20506;-57
2023/05/01 19:12:25;;;;;;;2.33;1.20;;;16.70;67.30;;;;;;10365583;28;20099;-55
2023/05/01 19:17:26;;;;;;;2.55;1.70;;;16.70;67.30;;;;;;10365741;28;20085;-56
2023/05/01 19:22:27;;;;;;;2.53;1.77;;;16.70;67.30;;;;;;10364690;28;20026;-56
2023/05/01 19:27:27;;;;;;;3.05;1.45;;;16.70;67.20;;;;;;10365556;28;20053;-55
2023/05/01 19:32:28;;;;;;;2.33;1.50;;;16.70;67.10;;;;;;10365503;28;20030;-55
2023/05/01 19:37:29;;;;;;;2.72;1.70;;;16.70;67.20;;;;;;10364463;28;20122;-57
2023/05/01 19:42:30;;;;;;;2.95;1.88;;;16.70;67.30;;;;;;10364840;28;20198;-56
2023/05/01 19:47:30;;;;;;;2.85;1.90;;;16.60;67.20;;;;;;10365537;28;20520;-55
2023/05/01 19:52:31;;;;;;;3.15;1.95;;;16.70;67.30;;;;;;10364706;28;20120;-55
2023/05/01 19:57:32;;;;;;;2.95;1.88;;;16.60;67.30;;;;;;10364654;28;20036;-57
2023/05/01 20:02:33;;;;;;;2.92;2.00;;;16.60;67.30;;;;;;10364743;28;20018;-56
2023/05/01 20:07:33;;;;;;;2.55;1.65;;;16.60;67.30;;;;;;10364498;28;20085;-55
2023/05/01 20:12:34;;;;;;;2.45;1.80;;;16.60;67.30;;;;;;10363957;28;20507;-55
2023/05/01 20:17:35;;;;;;;3.40;1.90;;;16.60;67.40;;;;;;10364656;28;20093;-57
2023/05/01 20:22:35;;;;;;;2.70;1.88;;;16.60;67.40;;;;;;10364419;28;20042;-56
2023/05/01 20:27:38;;;;;;;2.92;1.92;;;16.60;67.40;;;;;;10350544;28;20676;-55
2023/05/01 20:32:41;;;;;;;2.80;2.05;;;16.60;67.40;;;;;;10365513;28;20085;-57
2023/05/01 20:37:42;;;;;;;3.00;2.35;;;16.60;67.40;;;;;;10363753;28;20565;-57
2023/05/01 20:42:42;;;;;;;3.88;2.03;;;16.60;67.40;;;;;;10338125;28;20169;-55
2023/05/01 20:47:43;;;;;;;3.10;2.28;;;16.60;67.40;;;;;;10363840;28;20423;-57
2023/05/01 20:52:44;;;;;;;3.10;2.20;;;16.60;68.00;;;;;;10370511;28;20038;-53
2023/05/01 20:57:45;;;;;;;3.35;2.30;;;16.60;67.40;;;;;;10371458;28;20015;-57
2023/05/01 21:02:45;;;;;;;4.47;2.72;;;16.60;67.40;;;;;;10371387;28;20092;-57
2023/05/01 21:07:47;;;;;;;3.58;2.60;;;16.60;67.40;;;;;;10370842;28;20056;-56
2023/05/01 21:12:47;;;;;;;3.42;2.70;;;16.60;67.40;;;;;;10370825;28;20095;-54
2023/05/01 21:17:48;;;;;;;3.50;2.40;;;16.50;67.30;;;;;;10369882;28;20014;-56
2023/05/01 21:22:49;;;;;;;3.92;3.28;;;16.50;67.30;;;;;;10370715;28;20522;-55
2023/05/01 21:27:50;;;;;;;4.63;2.97;;;16.50;67.30;;;;;;10369320;28;20650;-57
2023/05/01 21:32:50;;;;;;;4.60;3.35;;;16.50;67.30;;;;;;10371524;28;20030;-57
2023/05/01 21:37:51;;;;;;;4.18;3.00;;;16.50;67.30;;;;;;10368948;28;20058;-57
2023/05/01 21:42:53;;;;;;;3.78;2.88;;;16.50;67.20;;;;;;10368362;28;20022;-55
2023/05/01 21:47:54;;;;;;;4.90;3.35;;;16.50;67.30;;;;;;10369611;28;20040;-57
2023/05/01 21:52:54;;;;;;;4.10;3.22;;;16.50;67.30;;;;;;10369739;28;20022;-57
2023/05/01 21:57:57;;;;;;;4.38;3.30;;;16.50;67.30;;;;;;10369199;28;20109;-56
2023/05/01 22:02:58;;;;;;;5.30;4.13;;;16.50;67.30;;;;;;10366928;28;20065;-57
2023/05/01 22:07:59;;;;;;;5.15;4.22;;;16.50;67.30;;;;;;10367947;28;20036;-56
2023/05/01 22:12:59;;;;;;;4.18;3.10;;;16.50;67.30;;;;;;10368724;28;20121;-56
2023/05/01 22:18:00;;;;;;;5.43;4.28;;;16.50;67.30;;;;;;10368780;28;20473;-57
2023/05/01 22:23:01;;;;;;;5.57;4.00;;;16.50;67.30;;;;;;10368761;28;20042;-56
2023/05/01 22:28:04;;;;;;;4.60;3.40;;;16.50;67.30;;;;;;10367875;28;20100;-56
2023/05/01 22:33:05;;;;;;;5.47;4.32;;;16.50;67.20;;;;;;10369520;28;20030;-56
2023/05/01 22:38:07;;;;;;;5.53;4.57;;;16.50;67.20;;;;;;10366882;28;20483;-56
2023/05/01 22:43:07;;;;;;;5.75;3.78;;;16.50;67.30;;;;;;10367587;28;20037;-55
2023/05/01 22:48:09;;;;;;;4.40;3.63;;;16.50;67.20;;;;;;10367565;28;20057;-56
2023/05/01 22:53:10;;;;;;;7.00;4.45;;;16.50;67.30;;;;;;10366005;28;20045;-56
2023/05/01 22:58:10;;;;;;;6.45;4.72;;;16.50;67.30;;;;;;10367081;28;20022;-56
2023/05/01 23:03:11;;;;;;;6.40;4.10;;;16.50;67.30;;;;;;10366686;28;20133;-56
2023/05/01 23:08:12;;;;;;;5.47;4.00;;;16.50;67.30;;;;;;10365571;28;20036;-57
2023/05/01 23:13:22;;;;;;;5.40;3.95;;;16.50;67.30;;;;;;10364678;28;20560;-56
2023/05/01 23:18:29;;;;;;;5.20;3.38;;;16.40;67.30;;;;;;10365495;28;20093;-57
2023/05/01 23:23:33;;;;;;;4.28;3.53;;;16.50;67.30;;;;;;10364001;28;20057;-56
2023/05/01 23:28:43;;;;;;;4.28;3.50;;;16.50;67.20;;;;;;10352448;28;20045;-56
2023/05/01 23:33:43;;;;;;;;;;;16.50;67.20;;;;;;10365949;28;20041;-56
2023/05/01 23:38:45;;;;;;;6.00;3.83;;;16.40;67.20;;;;;;10365449;28;19905;-57
2023/05/01 23:43:46;;;;;;;5.03;3.53;;;16.40;67.10;;;;;;10365628;28;20450;-55
2023/05/01 23:48:47;;;;;;;5.63;4.00;;;16.40;67.10;;;;;;10343402;28;20385;-56
2023/05/01 23:53:48;;;;;;;5.82;3.92;;;16.40;67.10;;;;;;10363762;28;20120;-55
2023/05/01 23:58:48;;;;;;;5.13;3.42;;;16.40;67.10;;;;;;10364880;28;20113;-56
